Time;durP1;ratioP1;P1;durP2;ratioP2;P2;SDS_P1;SDS_P2;PMS_P1;PMS_P2;Temp;Humidity;BMP_temperature;BMP_pressure;BME280_temperature;BME280_humidity;BME280_pressure;Samples;Min_cycle;Max_cycle;Signal;HPM_P1;HPM_P2
2021/09/25 00:00:38;;;;;;;7.65;6.85;;;;;;;;;;4997683;28;20498;-54
2021/09/25 00:03:04;;;;;;;6.70;5.47;;;;;;;;;;5004239;28;20033;-53
2021/09/25 00:05:31;;;;;;;5.63;4.97;;;;;;;;;;5000941;28;20440;-56
2021/09/25 00:07:56;;;;;;;5.97;5.38;;;;;;;;;;4997662;28;20050;-54
2021/09/25 00:10:22;;;;;;;6.00;5.15;;;;;;;;;;5001059;28;20132;-53
2021/09/25 00:12:48;;;;;;;6.65;5.38;;;;;;;;;;4999934;28;20099;-56
2021/09/25 00:15:13;;;;;;;8.63;6.10;;;;;;;;;;4997565;28;20029;-56
2021/09/25 00:17:39;;;;;;;9.00;5.75;;;;;;;;;;4999911;28;20120;-54
2021/09/25 00:20:05;;;;;;;6.75;5.55;;;;;;;;;;4997831;28;20023;-55
2021/09/25 00:22:30;;;;;;;5.53;5.03;;;;;;;;;;4999174;28;20080;-54
2021/09/25 00:24:55;;;;;;;8.13;7.32;;;;;;;;;;4998417;28;20034;-59
2021/09/25 00:27:21;;;;;;;6.93;5.75;;;;;;;;;;4998568;28;20041;-53
2021/09/25 00:29:46;;;;;;;6.90;5.65;;;;;;;;;;4998744;28;20029;-56
2021/09/25 00:32:11;;;;;;;8.68;5.88;;;;;;;;;;4998762;28;20101;-56
2021/09/25 00:34:36;;;;;;;6.78;5.50;;;;;;;;;;4999092;28;20053;-56
2021/09/25 00:37:02;;;;;;;7.28;5.63;;;;;;;;;;4998052;28;20577;-53
2021/09/25 00:39:27;;;;;;;7.20;6.20;;;;;;;;;;4998978;28;20468;-52
2021/09/25 00:41:52;;;;;;;8.00;6.47;;;;;;;;;;4998219;28;20052;-54
2021/09/25 00:44:19;;;;;;;6.68;6.07;;;;;;;;;;4999964;28;20030;-54
2021/09/25 00:46:44;;;;;;;6.95;5.80;;;;;;;;;;5001885;28;20382;-56
2021/09/25 00:49:15;;;;;;;10.10;6.35;;;;;;;;;;5002266;28;20100;-56
2021/09/25 00:51:40;;;;;;;7.15;6.38;;;;;;;;;;5002808;28;20030;-55
2021/09/25 00:54:05;;;;;;;6.93;6.30;;;;;;;;;;5005700;28;20030;-56
2021/09/25 00:56:31;;;;;;;7.32;5.97;;;;;;;;;;4996758;28;20034;-56
2021/09/25 00:58:56;;;;;;;8.18;5.28;;;;;;;;;;4982853;28;20025;-56
2021/09/25 01:01:21;;;;;;;6.20;5.60;;;;;;;;;;4996268;28;20027;-53
2021/09/25 01:03:47;;;;;;;6.85;5.28;;;;;;;;;;4999378;28;20030;-54
2021/09/25 01:06:12;;;;;;;6.85;5.65;;;;;;;;;;4996790;28;20031;-53
2021/09/25 01:08:37;;;;;;;7.13;5.53;;;;;;;;;;4999646;28;20152;-51
2021/09/25 01:11:02;;;;;;;9.02;5.68;;;;;;;;;;4997444;28;20034;-52
2021/09/25 01:13:30;;;;;;;6.38;5.28;;;;;;;;;;4999267;28;20111;-53
2021/09/25 01:15:55;;;;;;;5.90;5.38;;;;;;;;;;4997970;28;20406;-55
2021/09/25 01:18:20;;;;;;;6.80;5.53;;;;;;;;;;4999613;28;20047;-55
2021/09/25 01:20:46;;;;;;;6.88;5.22;;;;;;;;;;4999052;28;20021;-56
2021/09/25 01:23:11;;;;;;;6.55;5.53;;;;;;;;;;4998165;28;20097;-52
2021/09/25 01:25:36;;;;;;;6.75;5.43;;;;;;;;;;5001445;28;20065;-55
2021/09/25 01:28:03;;;;;;;7.63;6.88;;;;;;;;;;5002046;28;20030;-55
2021/09/25 01:30:28;;;;;;;6.55;5.75;;;;;;;;;;5001496;28;20013;-54
2021/09/25 01:32:54;;;;;;;6.88;5.40;;;;;;;;;;5002686;28;20105;-55
2021/09/25 01:35:20;;;;;;;5.80;4.90;;;;;;;;;;5001722;28;20018;-54
2021/09/25 01:37:46;;;;;;;8.18;5.82;;;;;;;;;;5002993;28;20025;-55
2021/09/25 01:40:12;;;;;;;5.75;5.18;;;;;;;;;;5001180;28;20022;-55
2021/09/25 01:42:37;;;;;;;5.75;5.10;;;;;;;;;;5003349;28;20017;-53
2021/09/25 01:45:03;;;;;;;6.53;5.60;;;;;;;;;;4999710;28;20392;-55
2021/09/25 01:47:28;;;;;;;6.60;4.93;;;;;;;;;;5002965;28;20482;-55
2021/09/25 01:49:58;;;;;;;6.78;4.95;;;;;;;;;;4999763;28;20023;-54
2021/09/25 01:52:23;;;;;;;5.65;4.90;;;;;;;;;;4999791;28;20769;-54
2021/09/25 01:54:48;;;;;;;5.90;4.85;;;;;;;;;;5002589;28;20101;-56
2021/09/25 01:57:14;;;;;;;6.63;4.93;;;;;;;;;;5000452;28;20030;-53
2021/09/25 01:59:39;;;;;;;5.18;4.65;;;;;;;;;;5002507;28;20021;-55
2021/09/25 02:02:04;;;;;;;6.70;5.00;;;;;;;;;;5000621;28;20354;-55
2021/09/25 02:04:29;;;;;;;7.20;5.03;;;;;;;;;;5001404;28;20032;-53
2021/09/25 02:06:55;;;;;;;6.10;5.43;;;;;;;;;;5000594;28;20035;-54
2021/09/25 02:09:20;;;;;;;5.85;5.30;;;;;;;;;;5001597;28;20080;-55
2021/09/25 02:11:45;;;;;;;6.03;4.70;;;;;;;;;;5001499;28;20093;-56
2021/09/25 02:14:10;;;;;;;4.80;4.38;;;;;;;;;;5002991;28;20084;-55
2021/09/25 02:16:36;;;;;;;4.72;4.32;;;;;;;;;;5002786;28;20037;-55
2021/09/25 02:19:01;;;;;;;6.97;5.18;;;;;;;;;;5001005;28;20066;-54
2021/09/25 02:21:26;;;;;;;5.32;4.82;;;;;;;;;;5000551;28;20026;-55
2021/09/25 02:23:51;;;;;;;5.85;5.05;;;;;;;;;;5003078;28;20038;-56
2021/09/25 02:26:17;;;;;;;6.50;4.78;;;;;;;;;;5000689;28;20117;-56
2021/09/25 02:28:42;;;;;;;5.88;4.82;;;;;;;;;;5002672;28;20391;-52
2021/09/25 02:31:07;;;;;;;7.93;5.38;;;;;;;;;;5005521;28;20030;-56
2021/09/25 02:33:32;;;;;;;7.72;5.00;;;;;;;;;;5002357;28;20030;-56
2021/09/25 02:35:58;;;;;;;6.32;5.53;;;;;;;;;;5002042;28;20028;-54
2021/09/25 02:38:24;;;;;;;5.20;4.57;;;;;;;;;;4982374;28;20081;-55
2021/09/25 02:40:49;;;;;;;5.63;5.03;;;;;;;;;;5001816;28;20382;-53
2021/09/25 02:43:14;;;;;;;5.93;4.40;;;;;;;;;;5001284;28;20026;-55
2021/09/25 02:45:40;;;;;;;6.13;5.53;;;;;;;;;;5004463;28;20153;-56
2021/09/25 02:48:05;;;;;;;6.65;4.80;;;;;;;;;;4999180;28;20045;-55
2021/09/25 02:50:31;;;;;;;6.22;4.95;;;;;;;;;;5002278;28;20022;-56
2021/09/25 02:52:56;;;;;;;7.35;5.70;;;;;;;;;;4998676;28;20037;-52
2021/09/25 02:55:22;;;;;;;5.78;5.18;;;;;;;;;;5002172;28;20033;-56
2021/09/25 02:57:47;;;;;;;6.78;5.85;;;;;;;;;;5001669;28;20018;-55
2021/09/25 03:00:14;;;;;;;5.40;4.63;;;;;;;;;;4999033;28;20033;-55
2021/09/25 03:02:40;;;;;;;6.90;5.90;;;;;;;;;;5001123;28;20044;-52
2021/09/25 03:05:05;;;;;;;7.95;5.40;;;;;;;;;;4999571;28;20461;-56
2021/09/25 03:07:30;;;;;;;12.95;6.15;;;;;;;;;;5000358;28;20479;-54
2021/09/25 03:09:56;;;;;;;7.07;5.18;;;;;;;;;;4999614;28;20389;-56
2021/09/25 03:12:21;;;;;;;5.88;5.28;;;;;;;;;;5000083;28;20029;-55
2021/09/25 03:14:46;;;;;;;6.95;5.72;;;;;;;;;;4999987;28;20084;-56
2021/09/25 03:17:11;;;;;;;5.32;4.82;;;;;;;;;;4999818;28;20439;-54
2021/09/25 03:19:37;;;;;;;6.10;5.50;;;;;;;;;;4999481;28;20061;-52
2021/09/25 03:22:02;;;;;;;5.80;5.20;;;;;;;;;;4999396;28;20469;-54
2021/09/25 03:24:27;;;;;;;7.53;5.30;;;;;;;;;;5004310;28;20034;-53
2021/09/25 03:26:53;;;;;;;5.55;5.05;;;;;;;;;;5003378;28;20030;-54
2021/09/25 03:29:18;;;;;;;5.85;5.28;;;;;;;;;;5002454;28;20033;-56
2021/09/25 03:31:43;;;;;;;6.07;5.47;;;;;;;;;;4997655;28;20360;-55
2021/09/25 03:34:08;;;;;;;7.68;5.57;;;;;;;;;;4998666;28;20056;-55
2021/09/25 03:36:34;;;;;;;9.00;5.50;;;;;;;;;;5000197;28;20073;-56
2021/09/25 03:38:59;;;;;;;5.97;5.18;;;;;;;;;;4998038;28;20022;-53
2021/09/25 03:41:24;;;;;;;6.70;5.15;;;;;;;;;;4999054;28;20034;-56
2021/09/25 03:43:50;;;;;;;6.50;4.93;;;;;;;;;;5001181;28;20026;-55
2021/09/25 03:46:18;;;;;;;7.95;5.22;;;;;;;;;;5004106;28;20180;-56
2021/09/25 03:48:44;;;;;;;6.07;5.25;;;;;;;;;;5001013;28;20034;-55
2021/09/25 03:51:09;;;;;;;5.50;4.95;;;;;;;;;;5004034;28;20036;-51
2021/09/25 03:53:35;;;;;;;6.13;5.53;;;;;;;;;;4997807;28;20034;-51
2021/09/25 03:56:00;;;;;;;7.47;5.40;;;;;;;;;;5004459;28;20133;-55
2021/09/25 03:58:25;;;;;;;6.65;5.50;;;;;;;;;;4997303;28;20034;-56
2021/09/25 04:00:50;;;;;;;6.03;5.32;;;;;;;;;;5000778;28;20543;-54
2021/09/25 04:03:16;;;;;;;5.65;5.07;;;;;;;;;;4997642;28;20037;-56
2021/09/25 04:05:41;;;;;;;6.32;5.15;;;;;;;;;;5000477;28;20460;-56
2021/09/25 04:08:06;;;;;;;5.65;5.15;;;;;;;;;;4997495;28;20034;-54
2021/09/25 04:10:32;;;;;;;7.80;5.72;;;;;;;;;;4999632;28;20498;-56
2021/09/25 04:12:58;;;;;;;8.45;5.53;;;;;;;;;;4998655;28;20014;-52
2021/09/25 04:15:23;;;;;;;6.47;5.15;;;;;;;;;;4998991;28;20363;-52
2021/09/25 04:17:52;;;;;;;6.55;5.93;;;;;;;;;;5000236;28;20459;-52
2021/09/25 04:20:17;;;;;;;7.95;5.75;;;;;;;;;;5000072;28;20018;-54
2021/09/25 04:22:42;;;;;;;6.22;5.63;;;;;;;;;;4999423;28;20057;-53
2021/09/25 04:25:08;;;;;;;10.27;5.78;;;;;;;;;;4998872;28;20480;-53
2021/09/25 04:27:33;;;;;;;7.05;6.13;;;;;;;;;;5000266;28;20038;-53
2021/09/25 04:30:01;;;;;;;7.18;6.38;;;;;;;;;;5000975;28;20483;-55
2021/09/25 04:32:27;;;;;;;9.50;5.97;;;;;;;;;;4998522;28;20028;-54
2021/09/25 04:34:52;;;;;;;6.03;5.35;;;;;;;;;;5000061;28;20021;-55
2021/09/25 04:37:17;;;;;;;8.13;6.93;;;;;;;;;;4996685;28;20488;-55
2021/09/25 04:39:42;;;;;;;6.13;5.20;;;;;;;;;;5000726;28;20037;-52
2021/09/25 04:42:08;;;;;;;6.35;5.72;;;;;;;;;;4999060;28;20035;-51
2021/09/25 04:44:33;;;;;;;7.45;5.25;;;;;;;;;;5000393;28;20030;-55
2021/09/25 04:46:58;;;;;;;5.63;5.13;;;;;;;;;;4999449;28;20109;-56
2021/09/25 04:49:24;;;;;;;7.38;5.57;;;;;;;;;;5005853;28;20018;-56
2021/09/25 04:51:49;;;;;;;5.88;4.78;;;;;;;;;;5006569;28;20030;-56
2021/09/25 04:54:14;;;;;;;6.57;4.70;;;;;;;;;;4999678;28;20037;-54
2021/09/25 04:56:39;;;;;;;6.05;5.32;;;;;;;;;;4999763;28;20692;-55
2021/09/25 04:59:05;;;;;;;7.22;5.38;;;;;;;;;;5001230;28;20050;-55
2021/09/25 05:01:31;;;;;;;7.35;5.68;;;;;;;;;;5003450;28;20026;-54
2021/09/25 05:03:57;;;;;;;6.05;5.28;;;;;;;;;;5001343;28;20648;-54
2021/09/25 05:06:22;;;;;;;5.07;4.57;;;;;;;;;;5002787;28;20034;-56
2021/09/25 05:08:47;;;;;;;4.90;4.40;;;;;;;;;;5001575;28;20041;-55
2021/09/25 05:11:12;;;;;;;5.63;5.07;;;;;;;;;;5002623;28;20034;-55
2021/09/25 05:13:38;;;;;;;7.68;5.05;;;;;;;;;;5002065;28;20030;-53
2021/09/25 05:16:03;;;;;;;8.68;5.10;;;;;;;;;;5001932;28;20030;-56
2021/09/25 05:18:29;;;;;;;6.43;4.85;;;;;;;;;;5003937;28;20480;-55
2021/09/25 05:20:54;;;;;;;6.20;4.75;;;;;;;;;;5001865;28;20526;-56
2021/09/25 05:23:19;;;;;;;5.60;5.10;;;;;;;;;;5002171;28;20050;-55
2021/09/25 05:25:45;;;;;;;7.78;5.10;;;;;;;;;;5001931;28;20113;-56
2021/09/25 05:28:10;;;;;;;6.15;4.53;;;;;;;;;;5001625;28;20080;-55
2021/09/25 05:30:36;;;;;;;5.03;4.60;;;;;;;;;;5002113;28;20030;-56
2021/09/25 05:33:01;;;;;;;5.65;4.63;;;;;;;;;;5001062;28;20038;-56
2021/09/25 05:35:27;;;;;;;7.50;4.57;;;;;;;;;;5002679;28;20430;-53
2021/09/25 05:37:52;;;;;;;6.57;4.80;;;;;;;;;;4999188;28;20333;-56
2021/09/25 05:40:17;;;;;;;6.68;5.63;;;;;;;;;;5002336;28;20088;-56
2021/09/25 05:42:43;;;;;;;6.03;5.40;;;;;;;;;;5004400;28;20022;-55
2021/09/25 05:45:08;;;;;;;5.82;5.07;;;;;;;;;;5000110;28;20050;-55
2021/09/25 05:47:33;;;;;;;5.55;5.03;;;;;;;;;;5003977;28;20046;-55
2021/09/25 05:49:58;;;;;;;6.20;4.65;;;;;;;;;;5004889;28;21475;-56
2021/09/25 05:52:24;;;;;;;4.63;4.22;;;;;;;;;;4999990;28;20027;-56
2021/09/25 05:54:49;;;;;;;5.95;4.63;;;;;;;;;;5002337;28;20745;-55
2021/09/25 05:57:14;;;;;;;4.82;4.32;;;;;;;;;;4999183;28;20037;-55
2021/09/25 05:59:39;;;;;;;6.22;4.90;;;;;;;;;;5003248;28;20029;-55
2021/09/25 06:02:05;;;;;;;8.25;4.50;;;;;;;;;;5001151;28;20034;-55
2021/09/25 06:04:32;;;;;;;5.22;4.38;;;;;;;;;;5006496;28;20026;-55
2021/09/25 06:06:58;;;;;;;5.00;4.50;;;;;;;;;;4999544;28;20110;-56
2021/09/25 06:09:23;;;;;;;5.13;4.63;;;;;;;;;;4999779;28;20113;-57
2021/09/25 06:11:51;;;;;;;5.03;4.53;;;;;;;;;;5001747;28;20049;-56
2021/09/25 06:14:17;;;;;;;6.38;4.97;;;;;;;;;;5005047;28;20014;-57
2021/09/25 06:16:42;;;;;;;5.53;4.85;;;;;;;;;;5003212;28;20026;-57
2021/09/25 06:19:07;;;;;;;4.07;3.78;;;;;;;;;;5000555;28;20704;-56
2021/09/25 06:21:32;;;;;;;5.18;4.13;;;;;;;;;;5001116;28;20029;-56
2021/09/25 06:23:58;;;;;;;6.68;4.32;;;;;;;;;;5001256;28;20475;-55
2021/09/25 06:26:23;;;;;;;4.95;4.32;;;;;;;;;;5003287;28;20029;-54
2021/09/25 06:28:48;;;;;;;4.43;3.63;;;;;;;;;;5000800;28;20035;-55
2021/09/25 06:31:14;;;;;;;6.60;3.75;;;;;;;;;;4999693;28;20030;-54
2021/09/25 06:33:39;;;;;;;4.88;3.97;;;;;;;;;;5000912;28;20530;-56
2021/09/25 06:36:05;;;;;;;7.07;4.43;;;;;;;;;;4999477;28;20379;-56
2021/09/25 06:38:30;;;;;;;5.13;4.45;;;;;;;;;;5001171;28;20072;-55
2021/09/25 06:40:55;;;;;;;5.10;4.63;;;;;;;;;;4999021;28;20042;-54
2021/09/25 06:43:20;;;;;;;5.28;4.35;;;;;;;;;;5001474;28;20029;-54
2021/09/25 06:45:46;;;;;;;4.90;4.40;;;;;;;;;;5000366;28;20119;-53
2021/09/25 06:48:11;;;;;;;5.03;4.25;;;;;;;;;;5003271;28;20128;-51
2021/09/25 06:50:36;;;;;;;4.38;3.95;;;;;;;;;;4999937;28;20030;-53
2021/09/25 06:53:02;;;;;;;5.18;4.18;;;;;;;;;;5000242;28;20025;-54
2021/09/25 06:55:27;;;;;;;6.57;4.60;;;;;;;;;;5000042;28;20022;-55
2021/09/25 06:57:52;;;;;;;4.95;4.55;;;;;;;;;;4999150;28;20763;-54
2021/09/25 07:00:17;;;;;;;5.03;4.35;;;;;;;;;;4998483;28;20018;-52
2021/09/25 07:02:43;;;;;;;4.82;4.43;;;;;;;;;;5000375;28;20025;-55
2021/09/25 07:05:09;;;;;;;4.68;4.28;;;;;;;;;;4997296;28;20038;-55
2021/09/25 07:07:34;;;;;;;5.88;3.97;;;;;;;;;;4999325;28;20030;-55
2021/09/25 07:10:00;;;;;;;5.05;4.55;;;;;;;;;;4998092;28;20415;-55
2021/09/25 07:12:25;;;;;;;5.05;3.80;;;;;;;;;;4999860;28;20024;-53
2021/09/25 07:14:51;;;;;;;4.00;3.70;;;;;;;;;;5000962;28;20440;-55
2021/09/25 07:17:16;;;;;;;4.97;4.57;;;;;;;;;;5000341;28;20092;-56
2021/09/25 07:19:41;;;;;;;3.95;3.65;;;;;;;;;;5001733;28;20054;-55
2021/09/25 07:22:09;;;;;;;4.72;4.32;;;;;;;;;;5002747;28;20137;-53
2021/09/25 07:24:35;;;;;;;4.82;4.43;;;;;;;;;;4999373;28;20270;-52
2021/09/25 07:27:01;;;;;;;4.65;4.25;;;;;;;;;;5000398;28;20124;-55
2021/09/25 07:29:26;;;;;;;5.78;4.20;;;;;;;;;;4999323;28;20022;-54
2021/09/25 07:31:51;;;;;;;5.97;4.25;;;;;;;;;;4997067;28;20018;-56
2021/09/25 07:34:20;;;;;;;4.82;4.10;;;;;;;;;;5000029;28;20095;-55
2021/09/25 07:36:45;;;;;;;4.53;4.20;;;;;;;;;;4997986;28;20026;-56
2021/09/25 07:39:10;;;;;;;5.05;4.47;;;;;;;;;;4998217;28;20052;-55
2021/09/25 07:41:36;;;;;;;7.25;4.10;;;;;;;;;;4998916;28;20026;-56
2021/09/25 07:44:02;;;;;;;5.78;4.72;;;;;;;;;;4997812;28;20119;-55
2021/09/25 07:46:28;;;;;;;5.00;4.38;;;;;;;;;;4998574;28;20026;-56
2021/09/25 07:48:54;;;;;;;5.38;4.72;;;;;;;;;;4999603;28;20033;-54
2021/09/25 07:51:19;;;;;;;5.72;4.10;;;;;;;;;;4998308;28;20026;-52
2021/09/25 07:53:44;;;;;;;4.63;4.13;;;;;;;;;;5001816;28;20037;-54
2021/09/25 07:56:09;;;;;;;7.05;4.43;;;;;;;;;;4997833;28;20109;-53
2021/09/25 07:58:35;;;;;;;4.50;4.10;;;;;;;;;;5001301;28;20436;-54
2021/09/25 08:01:00;;;;;;;3.92;3.63;;;;;;;;;;4998004;28;20027;-54
2021/09/25 08:03:25;;;;;;;5.25;4.00;;;;;;;;;;5001312;28;20401;-56
2021/09/25 08:05:50;;;;;;;4.28;3.75;;;;;;;;;;5000517;28;20088;-56
2021/09/25 08:08:16;;;;;;;4.75;3.75;;;;;;;;;;5000238;28;20030;-55
2021/09/25 08:10:41;;;;;;;4.05;3.75;;;;;;;;;;5002572;28;20035;-56
2021/09/25 08:13:06;;;;;;;6.13;4.38;;;;;;;;;;5000510;28;20108;-56
2021/09/25 08:15:31;;;;;;;5.53;4.45;;;;;;;;;;4997973;28;20953;-54
2021/09/25 08:17:56;;;;;;;5.85;4.53;;;;;;;;;;4996575;28;20041;-55
2021/09/25 08:20:23;;;;;;;5.50;4.25;;;;;;;;;;4998093;28;20112;-55
2021/09/25 08:22:49;;;;;;;4.20;3.80;;;;;;;;;;4998995;28;20419;-54
2021/09/25 08:25:15;;;;;;;4.20;3.80;;;;;;;;;;4997644;28;20026;-57
2021/09/25 08:27:40;;;;;;;4.45;4.05;;;;;;;;;;4998555;28;20026;-57
2021/09/25 08:30:07;;;;;;;3.80;3.38;;;;;;;;;;5000200;28;20034;-57
2021/09/25 08:32:32;;;;;;;5.68;3.55;;;;;;;;;;5000457;28;20014;-56
2021/09/25 08:34:57;;;;;;;6.28;3.55;;;;;;;;;;5001712;28;20033;-57
2021/09/25 08:37:22;;;;;;;4.45;3.78;;;;;;;;;;4999216;28;20026;-56
2021/09/25 08:39:48;;;;;;;3.60;3.30;;;;;;;;;;5001649;28;20036;-51
2021/09/25 08:42:17;;;;;;;5.10;3.20;;;;;;;;;;4998321;28;20026;-52
2021/09/25 08:44:43;;;;;;;3.72;3.42;;;;;;;;;;5004157;28;20026;-56
2021/09/25 08:47:08;;;;;;;4.88;3.67;;;;;;;;;;4998508;28;21032;-51
2021/09/25 08:49:34;;;;;;;3.65;3.35;;;;;;;;;;5003922;28;20041;-52
2021/09/25 08:52:00;;;;;;;2.97;2.78;;;;;;;;;;5003166;28;20496;-52
2021/09/25 08:54:25;;;;;;;3.63;3.22;;;;;;;;;;4999804;28;20041;-52
2021/09/25 08:56:50;;;;;;;4.03;3.28;;;;;;;;;;5000209;28;20022;-55
2021/09/25 08:59:15;;;;;;;5.60;3.20;;;;;;;;;;4998259;28;20033;-52
2021/09/25 09:01:44;;;;;;;4.63;3.42;;;;;;;;;;4997187;28;20041;-56
2021/09/25 09:04:09;;;;;;;2.88;2.67;;;;;;;;;;4999230;28;20039;-57
2021/09/25 09:06:36;;;;;;;3.72;3.22;;;;;;;;;;4997937;28;20054;-54
2021/09/25 09:09:03;;;;;;;2.80;2.60;;;;;;;;;;4997829;28;20022;-56
2021/09/25 09:11:29;;;;;;;4.95;3.30;;;;;;;;;;5002546;28;20341;-56
2021/09/25 09:13:56;;;;;;;3.28;2.55;;;;;;;;;;4997925;28;20030;-56
2021/09/25 09:16:22;;;;;;;3.22;2.92;;;;;;;;;;5002534;28;20030;-54
2021/09/25 09:18:48;;;;;;;3.45;2.92;;;;;;;;;;5000388;28;20022;-54
2021/09/25 09:21:15;;;;;;;2.97;2.70;;;;;;;;;;5000520;28;20061;-53
2021/09/25 09:23:54;;;;;;;3.33;2.85;;;;;;;;;;4998914;28;20030;-57
2021/09/25 09:26:21;;;;;;;3.47;3.10;;;;;;;;;;4998196;28;20030;-55
2021/09/25 09:28:47;;;;;;;3.30;3.00;;;;;;;;;;5000283;28;20046;-55
2021/09/25 09:31:13;;;;;;;3.00;2.80;;;;;;;;;;4999821;28;20018;-54
2021/09/25 09:33:38;;;;;;;3.42;3.13;;;;;;;;;;5002216;28;20910;-55
2021/09/25 09:36:09;;;;;;;3.55;3.25;;;;;;;;;;4998805;28;20579;-55
2021/09/25 09:38:37;;;;;;;3.42;3.13;;;;;;;;;;4997363;28;20113;-56
2021/09/25 09:41:02;;;;;;;3.75;3.55;;;;;;;;;;4996508;28;20033;-56
2021/09/25 09:43:27;;;;;;;3.15;2.95;;;;;;;;;;4999514;28;20025;-55
2021/09/25 09:45:56;;;;;;;3.55;3.35;;;;;;;;;;5000410;28;20038;-56
2021/09/25 09:48:22;;;;;;;3.88;3.58;;;;;;;;;;5001320;28;20030;-57
2021/09/25 09:50:47;;;;;;;5.00;3.95;;;;;;;;;;5002339;28;20075;-55
2021/09/25 09:53:13;;;;;;;4.35;3.95;;;;;;;;;;5001114;28;20109;-57
2021/09/25 09:55:38;;;;;;;4.18;3.88;;;;;;;;;;4984044;28;20030;-55
2021/09/25 09:58:05;;;;;;;3.70;3.30;;;;;;;;;;5002450;28;20044;-52
2021/09/25 10:00:34;;;;;;;3.85;3.53;;;;;;;;;;5004927;28;20029;-55
2021/09/25 10:03:00;;;;;;;4.93;3.60;;;;;;;;;;5003286;28;20112;-56
2021/09/25 10:05:26;;;;;;;4.30;3.85;;;;;;;;;;5000451;28;20113;-55
2021/09/25 10:07:51;;;;;;;3.45;3.25;;;;;;;;;;5002836;28;20034;-55
2021/09/25 10:10:17;;;;;;;4.10;3.58;;;;;;;;;;5003484;28;20038;-55
2021/09/25 10:12:42;;;;;;;4.60;3.50;;;;;;;;;;5007047;28;20109;-54
2021/09/25 10:15:08;;;;;;;4.53;4.22;;;;;;;;;;5003518;28;20088;-54
2021/09/25 10:17:33;;;;;;;3.95;3.70;;;;;;;;;;5006928;28;20037;-55
2021/09/25 10:19:59;;;;;;;3.92;3.63;;;;;;;;;;5003154;28;20080;-55
2021/09/25 10:22:28;;;;;;;4.15;3.72;;;;;;;;;;5005879;28;20120;-54
2021/09/25 10:24:54;;;;;;;3.50;3.20;;;;;;;;;;5000151;28;20030;-54
2021/09/25 10:27:21;;;;;;;3.55;3.25;;;;;;;;;;5002991;28;20030;-52
2021/09/25 10:29:48;;;;;;;3.58;3.35;;;;;;;;;;5002688;28;20071;-56
2021/09/25 10:32:18;;;;;;;3.67;3.47;;;;;;;;;;5000529;28;20026;-56
2021/09/25 10:35:05;;;;;;;4.05;3.85;;;;;;;;;;5005035;28;20030;-53
2021/09/25 10:37:37;;;;;;;3.65;3.35;;;;;;;;;;5005073;28;20456;-56
2021/09/25 10:40:03;;;;;;;3.88;3.58;;;;;;;;;;5001764;28;20472;-53
2021/09/25 10:42:39;;;;;;;3.38;3.17;;;;;;;;;;5001653;28;20026;-53
2021/09/25 10:45:08;;;;;;;4.57;4.28;;;;;;;;;;4999999;28;20121;-54
2021/09/25 10:47:34;;;;;;;4.13;3.78;;;;;;;;;;5000457;28;20037;-55
2021/09/25 10:50:00;;;;;;;3.63;3.33;;;;;;;;;;4999834;28;20444;-56
2021/09/25 10:52:41;;;;;;;4.47;4.10;;;;;;;;;;5001527;28;20030;-54
2021/09/25 10:55:21;;;;;;;4.30;3.88;;;;;;;;;;5002644;28;20037;-56
2021/09/25 10:58:05;;;;;;;4.40;4.10;;;;;;;;;;5003007;28;20026;-53
2021/09/25 11:00:30;;;;;;;5.13;3.70;;;;;;;;;;5002779;28;20101;-53
2021/09/25 11:02:55;;;;;;;4.22;3.92;;;;;;;;;;5002753;28;20130;-55
2021/09/25 11:05:41;;;;;;;4.30;3.72;;;;;;;;;;4999424;28;20033;-53
2021/09/25 11:08:13;;;;;;;3.83;3.53;;;;;;;;;;4964230;28;20045;-55
2021/09/25 11:10:57;;;;;;;4.45;4.05;;;;;;;;;;4999181;28;20177;-56
2021/09/25 11:13:45;;;;;;;5.82;4.38;;;;;;;;;;4998225;28;20429;-53
2021/09/25 11:16:10;;;;;;;3.78;3.50;;;;;;;;;;5000399;28;20445;-53
2021/09/25 11:18:49;;;;;;;4.18;3.88;;;;;;;;;;5003555;28;20117;-56
2021/09/25 11:21:14;;;;;;;4.25;3.95;;;;;;;;;;5001863;28;20065;-57
2021/09/25 11:23:43;;;;;;;4.13;3.75;;;;;;;;;;5005317;28;20026;-57
2021/09/25 11:26:08;;;;;;;4.57;4.28;;;;;;;;;;5006435;28;20030;-57
2021/09/25 11:28:33;;;;;;;3.92;3.55;;;;;;;;;;5005198;28;20018;-54
2021/09/25 11:31:05;;;;;;;4.97;4.70;;;;;;;;;;5001447;28;20096;-56
2021/09/25 11:33:31;;;;;;;4.82;4.43;;;;;;;;;;4997560;28;20049;-55
2021/09/25 11:35:56;;;;;;;4.32;4.03;;;;;;;;;;5001234;28;20487;-55
2021/09/25 11:38:22;;;;;;;3.67;3.47;;;;;;;;;;4998472;28;20030;-55
2021/09/25 11:40:52;;;;;;;4.43;4.13;;;;;;;;;;5005714;28;20116;-54
2021/09/25 11:43:19;;;;;;;4.97;4.60;;;;;;;;;;4999535;28;20108;-56
2021/09/25 11:45:45;;;;;;;3.50;3.30;;;;;;;;;;4999870;28;20030;-56
2021/09/25 11:48:12;;;;;;;4.43;4.03;;;;;;;;;;4998594;28;20080;-57
2021/09/25 11:50:41;;;;;;;4.10;3.70;;;;;;;;;;4999769;28;20103;-56
2021/09/25 11:53:11;;;;;;;3.80;3.60;;;;;;;;;;4999661;28;20030;-55
2021/09/25 11:55:37;;;;;;;3.97;3.67;;;;;;;;;;4999394;28;20037;-56
2021/09/25 11:58:05;;;;;;;4.13;3.72;;;;;;;;;;5001609;28;20034;-56
2021/09/25 12:00:35;;;;;;;4.32;4.03;;;;;;;;;;4997151;28;20037;-56
2021/09/25 12:03:00;;;;;;;3.97;3.78;;;;;;;;;;5000123;28;20033;-54
2021/09/25 12:05:25;;;;;;;4.10;3.80;;;;;;;;;;4998782;28;20022;-57
2021/09/25 12:07:51;;;;;;;3.20;3.00;;;;;;;;;;5003540;28;20387;-56
2021/09/25 12:10:19;;;;;;;3.58;3.38;;;;;;;;;;5002248;28;20026;-54
2021/09/25 12:12:45;;;;;;;4.13;3.90;;;;;;;;;;5002959;28;20022;-56
2021/09/25 12:15:10;;;;;;;4.03;3.83;;;;;;;;;;5001964;28;20031;-57
2021/09/25 12:17:35;;;;;;;3.88;3.67;;;;;;;;;;4998083;28;20042;-57
2021/09/25 12:20:20;;;;;;;4.18;3.85;;;;;;;;;;4998988;28;20099;-55
2021/09/25 12:22:45;;;;;;;4.50;4.10;;;;;;;;;;4999648;28;20054;-56
2021/09/25 12:25:11;;;;;;;4.00;3.70;;;;;;;;;;5003273;28;20032;-55
2021/09/25 12:27:41;;;;;;;4.38;3.97;;;;;;;;;;5003873;28;20034;-56
2021/09/25 12:30:07;;;;;;;3.72;3.53;;;;;;;;;;5001829;28;20136;-56
2021/09/25 12:32:32;;;;;;;4.60;4.00;;;;;;;;;;4998154;28;20104;-56
2021/09/25 12:34:58;;;;;;;4.13;3.70;;;;;;;;;;5000405;28;20109;-57
2021/09/25 12:37:23;;;;;;;4.53;4.22;;;;;;;;;;4999859;28;20050;-55
2021/09/25 12:39:50;;;;;;;5.00;3.92;;;;;;;;;;4999053;28;20022;-52
2021/09/25 12:42:25;;;;;;;3.90;3.60;;;;;;;;;;5000930;28;20026;-55
2021/09/25 12:44:59;;;;;;;4.00;3.70;;;;;;;;;;4996834;28;20581;-55
2021/09/25 12:47:31;;;;;;;5.00;4.60;;;;;;;;;;4999443;28;20038;-55
2021/09/25 12:50:14;;;;;;;4.10;3.90;;;;;;;;;;5000984;28;20072;-55
2021/09/25 12:52:41;;;;;;;3.92;3.72;;;;;;;;;;5000521;28;20025;-55
2021/09/25 12:55:07;;;;;;;4.00;3.70;;;;;;;;;;5000520;28;20524;-55
2021/09/25 12:57:32;;;;;;;3.80;3.60;;;;;;;;;;4998439;28;20745;-54
2021/09/25 12:59:59;;;;;;;4.03;3.83;;;;;;;;;;4998467;28;20062;-53
2021/09/25 13:02:24;;;;;;;3.65;3.45;;;;;;;;;;4997561;28;20430;-54
2021/09/25 13:04:54;;;;;;;4.13;3.72;;;;;;;;;;5001041;28;20033;-55
2021/09/25 13:07:34;;;;;;;3.70;3.50;;;;;;;;;;5000907;28;20042;-54
2021/09/25 13:10:04;;;;;;;4.68;4.28;;;;;;;;;;5000010;28;20033;-52
2021/09/25 13:12:30;;;;;;;3.85;3.55;;;;;;;;;;4998004;28;20057;-53
2021/09/25 13:15:04;;;;;;;4.38;3.97;;;;;;;;;;4998388;28;20144;-55
2021/09/25 13:17:30;;;;;;;4.00;3.80;;;;;;;;;;4996587;28;20058;-54
2021/09/25 13:19:56;;;;;;;4.47;4.10;;;;;;;;;;5001526;28;20462;-54
2021/09/25 13:22:21;;;;;;;3.83;3.53;;;;;;;;;;5000597;28;20553;-57
2021/09/25 13:24:46;;;;;;;4.45;4.18;;;;;;;;;;5003237;28;20058;-56
2021/09/25 13:27:12;;;;;;;4.15;3.88;;;;;;;;;;5003327;28;20121;-56
2021/09/25 13:29:38;;;;;;;4.10;3.80;;;;;;;;;;5003054;28;20022;-55
2021/09/25 13:32:03;;;;;;;4.82;4.43;;;;;;;;;;5006407;28;20060;-55
2021/09/25 13:34:29;;;;;;;3.90;3.60;;;;;;;;;;5005428;28;20065;-56
2021/09/25 13:36:54;;;;;;;3.97;3.67;;;;;;;;;;5006450;28;20037;-53
2021/09/25 13:39:20;;;;;;;4.40;4.20;;;;;;;;;;5002532;28;20030;-56
2021/09/25 13:41:45;;;;;;;4.45;4.15;;;;;;;;;;5002464;28;20432;-53
2021/09/25 13:44:10;;;;;;;3.95;3.50;;;;;;;;;;5005769;28;20022;-56
2021/09/25 13:46:35;;;;;;;4.40;4.00;;;;;;;;;;5005071;28;20030;-55
2021/09/25 13:49:01;;;;;;;3.45;3.25;;;;;;;;;;5005083;28;20080;-56
2021/09/25 13:51:26;;;;;;;5.07;4.07;;;;;;;;;;5005113;28;20411;-55
2021/09/25 13:53:51;;;;;;;3.58;3.38;;;;;;;;;;5005055;28;20053;-55
2021/09/25 13:56:17;;;;;;;3.88;3.63;;;;;;;;;;5005619;28;20464;-54
2021/09/25 13:58:42;;;;;;;4.03;3.83;;;;;;;;;;5002837;28;20452;-52
2021/09/25 14:01:07;;;;;;;4.78;4.38;;;;;;;;;;5001799;28;20033;-57
2021/09/25 14:03:34;;;;;;;4.63;4.20;;;;;;;;;;5003605;28;20022;-56
2021/09/25 14:05:59;;;;;;;3.47;3.28;;;;;;;;;;5006476;28;20392;-56
2021/09/25 14:08:24;;;;;;;3.55;3.25;;;;;;;;;;5003337;28;20026;-57
2021/09/25 14:10:49;;;;;;;4.05;3.85;;;;;;;;;;5001940;28;20121;-55
2021/09/25 14:13:15;;;;;;;3.88;3.58;;;;;;;;;;5001095;28;20030;-57
2021/09/25 14:15:40;;;;;;;4.38;4.03;;;;;;;;;;5006077;28;20022;-55
2021/09/25 14:18:07;;;;;;;3.97;3.67;;;;;;;;;;5002618;28;20030;-56
2021/09/25 14:20:35;;;;;;;4.88;3.65;;;;;;;;;;5006017;28;20068;-55
2021/09/25 14:23:01;;;;;;;3.85;3.65;;;;;;;;;;5002285;28;20030;-57
2021/09/25 14:25:26;;;;;;;4.40;4.10;;;;;;;;;;4999730;28;20030;-55
2021/09/25 14:27:51;;;;;;;3.70;3.38;;;;;;;;;;5002646;28;20447;-56
2021/09/25 14:30:17;;;;;;;4.20;3.47;;;;;;;;;;5002893;28;20109;-55
2021/09/25 14:32:42;;;;;;;4.35;3.95;;;;;;;;;;5003414;28;20026;-57
2021/09/25 14:35:07;;;;;;;4.55;4.25;;;;;;;;;;5004408;28;20026;-57
2021/09/25 14:37:33;;;;;;;3.75;3.55;;;;;;;;;;5005058;28;20192;-56